sensor_id;sensor_type;location;lat;lon;timestamp;temperature;humidity
42085;DHT22;27746;52.228;20.890;2024-02-04T00:02:02;6.40;99.90
42085;DHT22;27746;52.228;20.890;2024-02-04T00:04:29;6.30;99.90
42085;DHT22;27746;52.228;20.890;2024-02-04T00:06:59;6.30;99.90
42085;DHT22;27746;52.228;20.890;2024-02-04T00:09:26;6.30;99.90
42085;DHT22;27746;52.228;20.890;2024-02-04T00:11:54;6.30;99.90
42085;DHT22;27746;52.228;20.890;2024-02-04T00:14:21;6.30;99.90
42085;DHT22;27746;52.228;20.890;2024-02-04T00:16:47;6.30;99.90
42085;DHT22;27746;52.228;20.890;2024-02-04T00:19:14;6.20;99.90
42085;DHT22;27746;52.228;20.890;2024-02-04T00:21:41;6.20;99.90
42085;DHT22;27746;52.228;20.890;2024-02-04T00:24:09;6.20;99.90
42085;DHT22;27746;52.228;20.890;2024-02-04T00:26:36;6.20;99.90
42085;DHT22;27746;52.228;20.890;2024-02-04T00:29:03;6.20;99.90
42085;DHT22;27746;52.228;20.890;2024-02-04T00:31:30;6.10;99.90
42085;DHT22;27746;52.228;20.890;2024-02-04T00:33:56;6.10;99.90
42085;DHT22;27746;52.228;20.890;2024-02-04T00:36:23;6.10;99.90
42085;DHT22;27746;52.228;20.890;2024-02-04T00:38:50;6.10;99.90
42085;DHT22;27746;52.228;20.890;2024-02-04T00:41:18;6.10;99.90
42085;DHT22;27746;52.228;20.890;2024-02-04T00:43:45;6.00;99.90
42085;DHT22;27746;52.228;20.890;2024-02-04T00:46:12;6.00;99.90
42085;DHT22;27746;52.228;20.890;2024-02-04T00:48:39;6.00;99.90
42085;DHT22;27746;52.228;20.890;2024-02-04T00:51:06;5.90;99.90
42085;DHT22;27746;52.228;20.890;2024-02-04T00:53:33;5.90;99.90
42085;DHT22;27746;52.228;20.890;2024-02-04T00:56:01;5.90;99.90
42085;DHT22;27746;52.228;20.890;2024-02-04T00:58:29;5.90;99.90
42085;DHT22;27746;52.228;20.890;2024-02-04T01:00:56;5.90;99.90
42085;DHT22;27746;52.228;20.890;2024-02-04T01:03:22;5.90;99.90
42085;DHT22;27746;52.228;20.890;2024-02-04T01:05:50;5.90;99.90
42085;DHT22;27746;52.228;20.890;2024-02-04T01:08:17;5.90;99.90
42085;DHT22;27746;52.228;20.890;2024-02-04T01:10:44;5.90;99.90
42085;DHT22;27746;52.228;20.890;2024-02-04T01:13:10;5.90;99.90
42085;DHT22;27746;52.228;20.890;2024-02-04T01:15:39;5.90;99.90
42085;DHT22;27746;52.228;20.890;2024-02-04T01:18:05;5.90;99.90
42085;DHT22;27746;52.228;20.890;2024-02-04T01:20:32;5.90;99.90
42085;DHT22;27746;52.228;20.890;2024-02-04T01:22:59;6.00;99.90
42085;DHT22;27746;52.228;20.890;2024-02-04T01:25:26;6.00;99.90
42085;DHT22;27746;52.228;20.890;2024-02-04T01:27:53;6.00;99.90
42085;DHT22;27746;52.228;20.890;2024-02-04T01:30:19;6.00;99.90
42085;DHT22;27746;52.228;20.890;2024-02-04T01:32:47;6.00;99.90
42085;DHT22;27746;52.228;20.890;2024-02-04T01:35:14;6.00;99.90
42085;DHT22;27746;52.228;20.890;2024-02-04T01:37:41;6.00;99.90
42085;DHT22;27746;52.228;20.890;2024-02-04T01:40:10;6.00;99.90
42085;DHT22;27746;52.228;20.890;2024-02-04T01:42:37;6.00;99.90
42085;DHT22;27746;52.228;20.890;2024-02-04T01:45:04;6.10;99.90
42085;DHT22;27746;52.228;20.890;2024-02-04T01:47:34;6.10;99.90
42085;DHT22;27746;52.228;20.890;2024-02-04T01:50:03;6.10;99.90
42085;DHT22;27746;52.228;20.890;2024-02-04T01:52:31;6.10;99.90
42085;DHT22;27746;52.228;20.890;2024-02-04T01:55:00;6.10;99.90
42085;DHT22;27746;52.228;20.890;2024-02-04T01:57:28;6.10;99.90
42085;DHT22;27746;52.228;20.890;2024-02-04T01:59:55;6.10;99.90
42085;DHT22;27746;52.228;20.890;2024-02-04T02:02:23;6.10;99.90
42085;DHT22;27746;52.228;20.890;2024-02-04T02:04:51;6.10;99.90
42085;DHT22;27746;52.228;20.890;2024-02-04T02:07:19;6.10;99.90
42085;DHT22;27746;52.228;20.890;2024-02-04T02:09:47;6.10;99.90
42085;DHT22;27746;52.228;20.890;2024-02-04T02:12:18;6.10;99.90
42085;DHT22;27746;52.228;20.890;2024-02-04T02:14:50;6.10;99.90
42085;DHT22;27746;52.228;20.890;2024-02-04T02:17:26;6.10;99.90
42085;DHT22;27746;52.228;20.890;2024-02-04T02:20:02;6.10;99.90
42085;DHT22;27746;52.228;20.890;2024-02-04T02:22:39;6.20;99.90
42085;DHT22;27746;52.228;20.890;2024-02-04T02:25:12;6.20;99.90
42085;DHT22;27746;52.228;20.890;2024-02-04T02:27:46;6.20;99.90
42085;DHT22;27746;52.228;20.890;2024-02-04T02:30:13;6.20;99.90
42085;DHT22;27746;52.228;20.890;2024-02-04T02:32:40;6.20;99.90
42085;DHT22;27746;52.228;20.890;2024-02-04T02:35:07;6.20;99.90
42085;DHT22;27746;52.228;20.890;2024-02-04T02:37:39;6.20;99.90
42085;DHT22;27746;52.228;20.890;2024-02-04T02:40:12;6.20;99.90
42085;DHT22;27746;52.228;20.890;2024-02-04T02:42:43;6.20;99.90
42085;DHT22;27746;52.228;20.890;2024-02-04T02:45:13;6.20;99.90
42085;DHT22;27746;52.228;20.890;2024-02-04T02:47:41;6.20;99.90
42085;DHT22;27746;52.228;20.890;2024-02-04T02:50:09;6.20;99.90
42085;DHT22;27746;52.228;20.890;2024-02-04T02:52:35;6.20;99.90
42085;DHT22;27746;52.228;20.890;2024-02-04T02:55:03;6.20;99.90
42085;DHT22;27746;52.228;20.890;2024-02-04T02:57:31;6.20;99.90
42085;DHT22;27746;52.228;20.890;2024-02-04T02:59:58;6.20;99.90
42085;DHT22;27746;52.228;20.890;2024-02-04T03:02:25;6.20;99.90
42085;DHT22;27746;52.228;20.890;2024-02-04T03:04:51;6.30;99.90
42085;DHT22;27746;52.228;20.890;2024-02-04T03:07:20;6.30;99.90
42085;DHT22;27746;52.228;20.890;2024-02-04T03:09:48;6.30;99.90
42085;DHT22;27746;52.228;20.890;2024-02-04T03:12:14;6.30;99.90
42085;DHT22;27746;52.228;20.890;2024-02-04T03:14:42;6.30;99.90
42085;DHT22;27746;52.228;20.890;2024-02-04T03:17:10;6.40;99.90
42085;DHT22;27746;52.228;20.890;2024-02-04T03:19:38;6.30;99.90
42085;DHT22;27746;52.228;20.890;2024-02-04T03:22:05;6.40;99.90
42085;DHT22;27746;52.228;20.890;2024-02-04T03:24:32;6.40;99.90
42085;DHT22;27746;52.228;20.890;2024-02-04T03:26:59;6.40;99.90
42085;DHT22;27746;52.228;20.890;2024-02-04T03:29:26;6.40;99.90
42085;DHT22;27746;52.228;20.890;2024-02-04T03:31:55;6.40;99.90
42085;DHT22;27746;52.228;20.890;2024-02-04T03:34:22;6.40;99.90
42085;DHT22;27746;52.228;20.890;2024-02-04T03:36:51;6.40;99.90
42085;DHT22;27746;52.228;20.890;2024-02-04T03:39:17;6.40;99.90
42085;DHT22;27746;52.228;20.890;2024-02-04T03:41:45;6.40;99.90
42085;DHT22;27746;52.228;20.890;2024-02-04T03:44:11;6.40;99.90
42085;DHT22;27746;52.228;20.890;2024-02-04T03:46:38;6.40;99.90
42085;DHT22;27746;52.228;20.890;2024-02-04T03:49:07;6.40;99.90
42085;DHT22;27746;52.228;20.890;2024-02-04T03:51:34;6.40;99.90
42085;DHT22;27746;52.228;20.890;2024-02-04T03:54:01;6.40;99.90
42085;DHT22;27746;52.228;20.890;2024-02-04T03:56:29;6.40;99.90
42085;DHT22;27746;52.228;20.890;2024-02-04T03:58:56;6.40;99.90
42085;DHT22;27746;52.228;20.890;2024-02-04T04:01:23;6.40;99.90
42085;DHT22;27746;52.228;20.890;2024-02-04T04:03:50;6.40;99.90
42085;DHT22;27746;52.228;20.890;2024-02-04T04:06:18;6.40;99.90
42085;DHT22;27746;52.228;20.890;2024-02-04T04:08:45;6.40;99.90
42085;DHT22;27746;52.228;20.890;2024-02-04T04:11:12;6.40;99.90
42085;DHT22;27746;52.228;20.890;2024-02-04T04:13:39;6.40;99.90
42085;DHT22;27746;52.228;20.890;2024-02-04T04:16:06;6.40;99.90
42085;DHT22;27746;52.228;20.890;2024-02-04T04:18:33;6.40;99.90
42085;DHT22;27746;52.228;20.890;2024-02-04T04:21:00;6.40;99.90
42085;DHT22;27746;52.228;20.890;2024-02-04T04:23:29;6.40;99.90
42085;DHT22;27746;52.228;20.890;2024-02-04T04:25:55;6.40;99.90
42085;DHT22;27746;52.228;20.890;2024-02-04T04:28:24;6.40;99.90
42085;DHT22;27746;52.228;20.890;2024-02-04T04:30:51;6.40;99.90
42085;DHT22;27746;52.228;20.890;2024-02-04T04:33:19;6.40;99.90
42085;DHT22;27746;52.228;20.890;2024-02-04T04:35:46;6.30;99.90
42085;DHT22;27746;52.228;20.890;2024-02-04T04:38:13;6.40;99.90
42085;DHT22;27746;52.228;20.890;2024-02-04T04:40:41;6.20;99.90
42085;DHT22;27746;52.228;20.890;2024-02-04T04:43:08;6.20;99.90
42085;DHT22;27746;52.228;20.890;2024-02-04T04:45:35;6.20;99.90
42085;DHT22;27746;52.228;20.890;2024-02-04T04:48:02;6.10;99.90
42085;DHT22;27746;52.228;20.890;2024-02-04T04:50:28;6.00;99.90
42085;DHT22;27746;52.228;20.890;2024-02-04T04:52:55;6.00;99.90
42085;DHT22;27746;52.228;20.890;2024-02-04T04:55:22;5.90;99.90
42085;DHT22;27746;52.228;20.890;2024-02-04T04:57:50;5.80;99.90
42085;DHT22;27746;52.228;20.890;2024-02-04T05:00:19;5.80;99.90
42085;DHT22;27746;52.228;20.890;2024-02-04T05:02:45;5.80;99.90
42085;DHT22;27746;52.228;20.890;2024-02-04T05:05:13;5.70;99.90
42085;DHT22;27746;52.228;20.890;2024-02-04T05:07:41;5.70;99.90
42085;DHT22;27746;52.228;20.890;2024-02-04T05:10:09;5.70;99.90
42085;DHT22;27746;52.228;20.890;2024-02-04T05:12:36;5.70;99.90
42085;DHT22;27746;52.228;20.890;2024-02-04T05:15:05;5.70;99.90
42085;DHT22;27746;52.228;20.890;2024-02-04T05:17:32;5.80;99.90
42085;DHT22;27746;52.228;20.890;2024-02-04T05:20:00;5.80;99.90
42085;DHT22;27746;52.228;20.890;2024-02-04T05:22:28;5.80;99.90
42085;DHT22;27746;52.228;20.890;2024-02-04T05:24:55;5.80;99.90
42085;DHT22;27746;52.228;20.890;2024-02-04T05:27:22;5.80;99.90
42085;DHT22;27746;52.228;20.890;2024-02-04T05:29:48;5.70;99.90
42085;DHT22;27746;52.228;20.890;2024-02-04T05:32:17;5.70;99.90
42085;DHT22;27746;52.228;20.890;2024-02-04T05:34:43;5.70;99.90
42085;DHT22;27746;52.228;20.890;2024-02-04T05:37:10;5.60;99.90
42085;DHT22;27746;52.228;20.890;2024-02-04T05:39:37;5.60;99.90
42085;DHT22;27746;52.228;20.890;2024-02-04T05:42:04;5.60;99.90
42085;DHT22;27746;52.228;20.890;2024-02-04T05:44:31;5.50;99.90
42085;DHT22;27746;52.228;20.890;2024-02-04T05:46:58;5.50;99.90
42085;DHT22;27746;52.228;20.890;2024-02-04T05:49:26;5.40;99.90
42085;DHT22;27746;52.228;20.890;2024-02-04T05:51:53;5.40;99.90
42085;DHT22;27746;52.228;20.890;2024-02-04T05:54:20;5.40;99.90
42085;DHT22;27746;52.228;20.890;2024-02-04T05:56:47;5.40;99.90
42085;DHT22;27746;52.228;20.890;2024-02-04T05:59:14;5.40;99.90
42085;DHT22;27746;52.228;20.890;2024-02-04T06:01:42;5.40;99.90
42085;DHT22;27746;52.228;20.890;2024-02-04T06:04:10;5.40;99.90
42085;DHT22;27746;52.228;20.890;2024-02-04T06:06:38;5.40;99.90
42085;DHT22;27746;52.228;20.890;2024-02-04T06:09:05;5.40;99.90
42085;DHT22;27746;52.228;20.890;2024-02-04T06:11:34;5.40;99.90
42085;DHT22;27746;52.228;20.890;2024-02-04T06:14:00;5.40;99.90
42085;DHT22;27746;52.228;20.890;2024-02-04T06:16:27;5.40;99.90
42085;DHT22;27746;52.228;20.890;2024-02-04T06:18:54;5.30;99.90
42085;DHT22;27746;52.228;20.890;2024-02-04T06:21:23;5.30;99.90
42085;DHT22;27746;52.228;20.890;2024-02-04T06:23:52;5.30;99.90
42085;DHT22;27746;52.228;20.890;2024-02-04T06:26:19;5.30;99.90
42085;DHT22;27746;52.228;20.890;2024-02-04T06:28:45;5.20;99.90
42085;DHT22;27746;52.228;20.890;2024-02-04T06:31:14;5.20;99.90
42085;DHT22;27746;52.228;20.890;2024-02-04T06:33:41;5.20;99.90
42085;DHT22;27746;52.228;20.890;2024-02-04T06:36:09;5.20;99.90
42085;DHT22;27746;52.228;20.890;2024-02-04T06:38:36;5.20;99.90
42085;DHT22;27746;52.228;20.890;2024-02-04T06:41:05;5.20;99.90
42085;DHT22;27746;52.228;20.890;2024-02-04T06:43:32;5.20;99.90
42085;DHT22;27746;52.228;20.890;2024-02-04T06:45:59;5.30;99.90
42085;DHT22;27746;52.228;20.890;2024-02-04T06:48:25;5.20;99.90
42085;DHT22;27746;52.228;20.890;2024-02-04T06:50:52;5.30;99.90
42085;DHT22;27746;52.228;20.890;2024-02-04T06:53:19;5.30;99.90
42085;DHT22;27746;52.228;20.890;2024-02-04T06:55:46;5.30;99.90
42085;DHT22;27746;52.228;20.890;2024-02-04T06:58:14;5.30;99.90
42085;DHT22;27746;52.228;20.890;2024-02-04T07:00:41;5.30;99.90
42085;DHT22;27746;52.228;20.890;2024-02-04T07:03:08;5.30;99.90
42085;DHT22;27746;52.228;20.890;2024-02-04T07:05:35;5.30;99.90
42085;DHT22;27746;52.228;20.890;2024-02-04T07:08:02;5.30;99.90
42085;DHT22;27746;52.228;20.890;2024-02-04T07:10:29;5.30;99.90
42085;DHT22;27746;52.228;20.890;2024-02-04T07:12:56;5.30;99.90
42085;DHT22;27746;52.228;20.890;2024-02-04T07:15:24;5.30;99.90
42085;DHT22;27746;52.228;20.890;2024-02-04T07:17:51;5.40;99.90
42085;DHT22;27746;52.228;20.890;2024-02-04T07:20:20;5.40;99.90
42085;DHT22;27746;52.228;20.890;2024-02-04T07:22:46;5.40;99.90
42085;DHT22;27746;52.228;20.890;2024-02-04T07:25:13;5.40;99.90
42085;DHT22;27746;52.228;20.890;2024-02-04T07:27:40;5.40;99.90
42085;DHT22;27746;52.228;20.890;2024-02-04T07:30:08;5.50;99.90
42085;DHT22;27746;52.228;20.890;2024-02-04T07:32:36;5.50;99.90
42085;DHT22;27746;52.228;20.890;2024-02-04T07:35:04;5.50;99.90
42085;DHT22;27746;52.228;20.890;2024-02-04T07:37:31;5.60;99.90
42085;DHT22;27746;52.228;20.890;2024-02-04T07:39:59;5.60;99.90
42085;DHT22;27746;52.228;20.890;2024-02-04T07:42:26;5.60;99.90
42085;DHT22;27746;52.228;20.890;2024-02-04T07:44:53;5.70;99.90
42085;DHT22;27746;52.228;20.890;2024-02-04T07:47:21;5.70;99.90
42085;DHT22;27746;52.228;20.890;2024-02-04T07:49:49;5.80;99.90
42085;DHT22;27746;52.228;20.890;2024-02-04T07:52:17;5.90;99.90
42085;DHT22;27746;52.228;20.890;2024-02-04T07:54:43;5.90;99.90
42085;DHT22;27746;52.228;20.890;2024-02-04T07:57:12;6.00;99.90
42085;DHT22;27746;52.228;20.890;2024-02-04T07:59:39;6.00;99.90
42085;DHT22;27746;52.228;20.890;2024-02-04T08:02:06;6.00;99.90
42085;DHT22;27746;52.228;20.890;2024-02-04T08:04:32;5.90;99.90
42085;DHT22;27746;52.228;20.890;2024-02-04T08:07:02;5.90;99.90
42085;DHT22;27746;52.228;20.890;2024-02-04T08:09:29;5.90;99.90
42085;DHT22;27746;52.228;20.890;2024-02-04T08:11:56;5.90;99.90
42085;DHT22;27746;52.228;20.890;2024-02-04T08:14:23;5.90;99.90
42085;DHT22;27746;52.228;20.890;2024-02-04T08:16:50;5.90;99.90
42085;DHT22;27746;52.228;20.890;2024-02-04T08:19:16;5.90;99.90
42085;DHT22;27746;52.228;20.890;2024-02-04T08:21:43;5.90;99.90
42085;DHT22;27746;52.228;20.890;2024-02-04T08:24:11;5.90;99.90
42085;DHT22;27746;52.228;20.890;2024-02-04T08:26:38;5.80;99.90
42085;DHT22;27746;52.228;20.890;2024-02-04T08:29:04;5.90;99.90
42085;DHT22;27746;52.228;20.890;2024-02-04T08:31:32;5.90;99.90
42085;DHT22;27746;52.228;20.890;2024-02-04T08:33:59;5.90;99.90
42085;DHT22;27746;52.228;20.890;2024-02-04T08:36:27;5.90;99.90
42085;DHT22;27746;52.228;20.890;2024-02-04T08:38:53;5.90;99.90
42085;DHT22;27746;52.228;20.890;2024-02-04T08:41:22;5.90;99.90
42085;DHT22;27746;52.228;20.890;2024-02-04T08:43:48;5.90;99.90
42085;DHT22;27746;52.228;20.890;2024-02-04T08:46:15;5.90;99.90
42085;DHT22;27746;52.228;20.890;2024-02-04T08:48:42;5.90;99.90
42085;DHT22;27746;52.228;20.890;2024-02-04T08:51:11;5.80;99.90
42085;DHT22;27746;52.228;20.890;2024-02-04T08:53:38;5.90;99.90
42085;DHT22;27746;52.228;20.890;2024-02-04T08:56:06;5.90;99.90
42085;DHT22;27746;52.228;20.890;2024-02-04T08:58:34;5.90;99.90
42085;DHT22;27746;52.228;20.890;2024-02-04T09:01:02;5.90;99.90
42085;DHT22;27746;52.228;20.890;2024-02-04T09:03:29;6.00;99.90
42085;DHT22;27746;52.228;20.890;2024-02-04T09:05:58;6.00;99.90
42085;DHT22;27746;52.228;20.890;2024-02-04T09:08:25;6.00;99.90
42085;DHT22;27746;52.228;20.890;2024-02-04T09:10:52;6.00;99.90
42085;DHT22;27746;52.228;20.890;2024-02-04T09:13:18;6.00;99.90
42085;DHT22;27746;52.228;20.890;2024-02-04T09:15:47;6.10;99.90
42085;DHT22;27746;52.228;20.890;2024-02-04T09:18:14;6.10;99.90
42085;DHT22;27746;52.228;20.890;2024-02-04T09:20:41;6.10;99.90
42085;DHT22;27746;52.228;20.890;2024-02-04T09:23:08;6.10;99.90
42085;DHT22;27746;52.228;20.890;2024-02-04T09:25:34;6.10;99.90
42085;DHT22;27746;52.228;20.890;2024-02-04T09:28:01;6.10;99.90
42085;DHT22;27746;52.228;20.890;2024-02-04T09:30:28;6.20;99.90
42085;DHT22;27746;52.228;20.890;2024-02-04T09:32:56;6.20;99.90
42085;DHT22;27746;52.228;20.890;2024-02-04T09:35:23;6.20;99.90
42085;DHT22;27746;52.228;20.890;2024-02-04T09:37:50;6.20;99.90
42085;DHT22;27746;52.228;20.890;2024-02-04T09:40:17;6.30;99.90
42085;DHT22;27746;52.228;20.890;2024-02-04T09:42:44;6.30;99.90
42085;DHT22;27746;52.228;20.890;2024-02-04T09:45:14;6.30;99.90
42085;DHT22;27746;52.228;20.890;2024-02-04T09:47:42;6.30;99.90
42085;DHT22;27746;52.228;20.890;2024-02-04T09:50:14;6.30;99.90
42085;DHT22;27746;52.228;20.890;2024-02-04T09:52:42;6.30;99.90
42085;DHT22;27746;52.228;20.890;2024-02-04T09:55:13;6.30;99.90
42085;DHT22;27746;52.228;20.890;2024-02-04T09:57:42;6.30;99.90
42085;DHT22;27746;52.228;20.890;2024-02-04T10:00:10;6.30;99.90
42085;DHT22;27746;52.228;20.890;2024-02-04T10:02:37;6.40;99.90
42085;DHT22;27746;52.228;20.890;2024-02-04T10:05:04;6.40;99.90
42085;DHT22;27746;52.228;20.890;2024-02-04T10:07:32;6.40;99.90
42085;DHT22;27746;52.228;20.890;2024-02-04T10:09:59;6.30;99.90
42085;DHT22;27746;52.228;20.890;2024-02-04T10:12:27;6.30;99.90
42085;DHT22;27746;52.228;20.890;2024-02-04T10:14:56;6.30;99.90
42085;DHT22;27746;52.228;20.890;2024-02-04T10:17:23;6.30;99.90
42085;DHT22;27746;52.228;20.890;2024-02-04T10:19:51;6.30;99.90
42085;DHT22;27746;52.228;20.890;2024-02-04T10:22:19;6.30;99.90
42085;DHT22;27746;52.228;20.890;2024-02-04T10:24:47;6.30;99.90
42085;DHT22;27746;52.228;20.890;2024-02-04T10:27:15;6.40;99.90
42085;DHT22;27746;52.228;20.890;2024-02-04T10:29:42;6.40;99.90
42085;DHT22;27746;52.228;20.890;2024-02-04T10:32:09;6.30;99.90
42085;DHT22;27746;52.228;20.890;2024-02-04T10:34:37;6.30;99.90
42085;DHT22;27746;52.228;20.890;2024-02-04T10:37:04;6.40;99.90
42085;DHT22;27746;52.228;20.890;2024-02-04T10:39:30;6.40;99.90
42085;DHT22;27746;52.228;20.890;2024-02-04T10:42:02;6.40;99.90
42085;DHT22;27746;52.228;20.890;2024-02-04T10:44:34;6.40;99.90
42085;DHT22;27746;52.228;20.890;2024-02-04T10:47:04;6.40;99.90
42085;DHT22;27746;52.228;20.890;2024-02-04T10:49:33;6.40;99.90
42085;DHT22;27746;52.228;20.890;2024-02-04T10:52:04;6.40;99.90
42085;DHT22;27746;52.228;20.890;2024-02-04T10:54:33;6.50;99.90
42085;DHT22;27746;52.228;20.890;2024-02-04T10:57:05;6.50;99.90
42085;DHT22;27746;52.228;20.890;2024-02-04T10:59:34;6.50;99.90
42085;DHT22;27746;52.228;20.890;2024-02-04T11:02:02;6.50;99.90
42085;DHT22;27746;52.228;20.890;2024-02-04T11:04:31;6.50;99.90
42085;DHT22;27746;52.228;20.890;2024-02-04T11:07:00;6.50;99.90
42085;DHT22;27746;52.228;20.890;2024-02-04T11:09:28;6.40;99.90
42085;DHT22;27746;52.228;20.890;2024-02-04T11:11:56;6.40;99.90
42085;DHT22;27746;52.228;20.890;2024-02-04T11:14:26;6.40;99.90
42085;DHT22;27746;52.228;20.890;2024-02-04T11:17:12;6.40;99.90
42085;DHT22;27746;52.228;20.890;2024-02-04T11:19:54;6.40;99.90
42085;DHT22;27746;52.228;20.890;2024-02-04T11:22:46;6.30;99.90
42085;DHT22;27746;52.228;20.890;2024-02-04T11:25:39;6.30;99.90
42085;DHT22;27746;52.228;20.890;2024-02-04T11:28:09;6.30;99.90
42085;DHT22;27746;52.228;20.890;2024-02-04T11:30:38;6.20;99.90
42085;DHT22;27746;52.228;20.890;2024-02-04T11:33:06;6.20;99.90
42085;DHT22;27746;52.228;20.890;2024-02-04T11:35:33;6.20;99.90
42085;DHT22;27746;52.228;20.890;2024-02-04T11:38:01;6.10;99.90
42085;DHT22;27746;52.228;20.890;2024-02-04T11:40:34;6.20;99.90
42085;DHT22;27746;52.228;20.890;2024-02-04T11:43:05;6.20;99.90
42085;DHT22;27746;52.228;20.890;2024-02-04T11:45:32;6.20;99.90
42085;DHT22;27746;52.228;20.890;2024-02-04T11:48:02;6.20;99.90
42085;DHT22;27746;52.228;20.890;2024-02-04T11:50:29;6.20;99.90
42085;DHT22;27746;52.228;20.890;2024-02-04T11:53:05;6.20;99.90
42085;DHT22;27746;52.228;20.890;2024-02-04T11:55:33;6.20;99.90
42085;DHT22;27746;52.228;20.890;2024-02-04T11:58:00;6.20;99.90
42085;DHT22;27746;52.228;20.890;2024-02-04T12:00:27;6.10;99.90
42085;DHT22;27746;52.228;20.890;2024-02-04T12:03:02;6.20;99.90
42085;DHT22;27746;52.228;20.890;2024-02-04T12:05:31;6.10;99.90
42085;DHT22;27746;52.228;20.890;2024-02-04T12:07:59;6.10;99.90
42085;DHT22;27746;52.228;20.890;2024-02-04T12:10:26;6.10;99.90
42085;DHT22;27746;52.228;20.890;2024-02-04T12:12:55;6.10;99.90
42085;DHT22;27746;52.228;20.890;2024-02-04T12:15:22;6.10;99.90
42085;DHT22;27746;52.228;20.890;2024-02-04T12:17:48;6.10;99.90
42085;DHT22;27746;52.228;20.890;2024-02-04T12:20:17;6.10;99.90
42085;DHT22;27746;52.228;20.890;2024-02-04T12:22:44;6.20;99.90
42085;DHT22;27746;52.228;20.890;2024-02-04T12:25:11;6.20;99.90
42085;DHT22;27746;52.228;20.890;2024-02-04T12:27:37;6.10;99.90
42085;DHT22;27746;52.228;20.890;2024-02-04T12:30:05;6.20;99.90
42085;DHT22;27746;52.228;20.890;2024-02-04T12:32:33;6.20;99.90
42085;DHT22;27746;52.228;20.890;2024-02-04T12:35:00;6.20;99.90
42085;DHT22;27746;52.228;20.890;2024-02-04T12:37:29;6.20;99.90
42085;DHT22;27746;52.228;20.890;2024-02-04T12:39:56;6.20;99.90
42085;DHT22;27746;52.228;20.890;2024-02-04T12:42:24;6.20;99.90
42085;DHT22;27746;52.228;20.890;2024-02-04T12:44:51;6.20;99.90
42085;DHT22;27746;52.228;20.890;2024-02-04T12:47:19;6.20;99.90
42085;DHT22;27746;52.228;20.890;2024-02-04T12:49:46;6.30;99.90
42085;DHT22;27746;52.228;20.890;2024-02-04T12:52:13;6.30;99.90
42085;DHT22;27746;52.228;20.890;2024-02-04T12:54:44;6.30;99.90
42085;DHT22;27746;52.228;20.890;2024-02-04T12:57:21;6.30;99.90
42085;DHT22;27746;52.228;20.890;2024-02-04T12:59:51;6.20;99.90
42085;DHT22;27746;52.228;20.890;2024-02-04T13:02:18;6.20;99.90
42085;DHT22;27746;52.228;20.890;2024-02-04T13:04:47;6.30;99.90
42085;DHT22;27746;52.228;20.890;2024-02-04T13:07:14;6.30;99.90
42085;DHT22;27746;52.228;20.890;2024-02-04T13:09:44;6.30;99.90
42085;DHT22;27746;52.228;20.890;2024-02-04T13:12:11;6.20;99.90
42085;DHT22;27746;52.228;20.890;2024-02-04T13:14:42;6.30;99.90
42085;DHT22;27746;52.228;20.890;2024-02-04T13:17:10;6.20;99.90
42085;DHT22;27746;52.228;20.890;2024-02-04T13:19:37;6.20;99.90
42085;DHT22;27746;52.228;20.890;2024-02-04T13:22:05;6.20;99.90
42085;DHT22;27746;52.228;20.890;2024-02-04T13:24:32;6.20;99.90
42085;DHT22;27746;52.228;20.890;2024-02-04T13:27:01;6.20;99.90
42085;DHT22;27746;52.228;20.890;2024-02-04T13:29:28;6.20;99.90
42085;DHT22;27746;52.228;20.890;2024-02-04T13:31:55;6.20;99.90
42085;DHT22;27746;52.228;20.890;2024-02-04T13:34:23;6.20;99.90
42085;DHT22;27746;52.228;20.890;2024-02-04T13:36:50;6.20;99.90
42085;DHT22;27746;52.228;20.890;2024-02-04T13:39:17;6.20;99.90
42085;DHT22;27746;52.228;20.890;2024-02-04T13:41:44;6.20;99.90
42085;DHT22;27746;52.228;20.890;2024-02-04T13:44:12;6.20;99.90
42085;DHT22;27746;52.228;20.890;2024-02-04T13:46:40;6.20;99.90
42085;DHT22;27746;52.228;20.890;2024-02-04T13:49:08;6.20;99.90
42085;DHT22;27746;52.228;20.890;2024-02-04T13:51:37;6.20;99.90
42085;DHT22;27746;52.228;20.890;2024-02-04T13:54:04;6.20;99.90
42085;DHT22;27746;52.228;20.890;2024-02-04T13:56:31;6.20;99.90
42085;DHT22;27746;52.228;20.890;2024-02-04T13:58:58;6.20;99.90
42085;DHT22;27746;52.228;20.890;2024-02-04T14:01:27;6.30;99.90
42085;DHT22;27746;52.228;20.890;2024-02-04T14:03:53;6.30;99.90
42085;DHT22;27746;52.228;20.890;2024-02-04T14:06:21;6.30;99.90
42085;DHT22;27746;52.228;20.890;2024-02-04T14:08:47;6.30;99.90
42085;DHT22;27746;52.228;20.890;2024-02-04T14:11:14;6.30;99.90
42085;DHT22;27746;52.228;20.890;2024-02-04T14:13:41;6.30;99.90
42085;DHT22;27746;52.228;20.890;2024-02-04T14:16:08;6.30;99.90
42085;DHT22;27746;52.228;20.890;2024-02-04T14:18:36;6.30;99.90
42085;DHT22;27746;52.228;20.890;2024-02-04T14:21:04;6.40;99.90
42085;DHT22;27746;52.228;20.890;2024-02-04T14:23:32;6.40;99.90
42085;DHT22;27746;52.228;20.890;2024-02-04T14:25:59;6.40;99.90
42085;DHT22;27746;52.228;20.890;2024-02-04T14:28:26;6.40;99.90
42085;DHT22;27746;52.228;20.890;2024-02-04T14:30:53;6.40;99.90
42085;DHT22;27746;52.228;20.890;2024-02-04T14:33:24;6.40;99.90
42085;DHT22;27746;52.228;20.890;2024-02-04T14:35:52;6.50;99.90
42085;DHT22;27746;52.228;20.890;2024-02-04T14:38:19;6.50;99.90
42085;DHT22;27746;52.228;20.890;2024-02-04T14:40:46;6.50;99.90
42085;DHT22;27746;52.228;20.890;2024-02-04T14:43:13;6.50;99.90
42085;DHT22;27746;52.228;20.890;2024-02-04T14:45:40;6.50;99.90
42085;DHT22;27746;52.228;20.890;2024-02-04T14:48:10;6.60;99.90
42085;DHT22;27746;52.228;20.890;2024-02-04T14:50:36;6.60;99.90
42085;DHT22;27746;52.228;20.890;2024-02-04T14:53:05;6.60;99.90
42085;DHT22;27746;52.228;20.890;2024-02-04T14:55:32;6.60;99.90
42085;DHT22;27746;52.228;20.890;2024-02-04T14:57:59;6.50;99.90
42085;DHT22;27746;52.228;20.890;2024-02-04T15:00:26;6.50;99.90
42085;DHT22;27746;52.228;20.890;2024-02-04T15:02:53;6.50;99.90
42085;DHT22;27746;52.228;20.890;2024-02-04T15:05:20;6.50;99.90
42085;DHT22;27746;52.228;20.890;2024-02-04T15:07:47;6.60;99.90
42085;DHT22;27746;52.228;20.890;2024-02-04T15:10:15;6.60;99.90
42085;DHT22;27746;52.228;20.890;2024-02-04T15:12:43;6.60;99.90
42085;DHT22;27746;52.228;20.890;2024-02-04T15:15:10;6.50;99.90
42085;DHT22;27746;52.228;20.890;2024-02-04T15:17:37;6.50;99.90
42085;DHT22;27746;52.228;20.890;2024-02-04T15:20:06;6.50;99.90
42085;DHT22;27746;52.228;20.890;2024-02-04T15:22:34;6.50;99.90
42085;DHT22;27746;52.228;20.890;2024-02-04T15:25:02;6.50;99.90
42085;DHT22;27746;52.228;20.890;2024-02-04T15:27:31;6.50;99.90
42085;DHT22;27746;52.228;20.890;2024-02-04T15:29:58;6.50;99.90
42085;DHT22;27746;52.228;20.890;2024-02-04T15:32:27;6.50;99.90
42085;DHT22;27746;52.228;20.890;2024-02-04T15:34:54;6.50;99.90